createdAt,value
2023-01-01T00:02:51.870Z,59.40
2023-01-01T00:05:58.945Z,59.18
2023-01-01T00:09:20.028Z,58.41
2023-01-01T00:13:15.323Z,58.39
2023-01-01T00:16:22.918Z,57.83
2023-01-01T00:19:27.797Z,58.73
2023-01-01T00:22:54.010Z,59.23
2023-01-01T00:25:56.915Z,58.85
2023-01-01T00:29:00.471Z,58.60
2023-01-01T00:32:11.386Z,58.92
2023-01-01T00:35:24.906Z,58.05
2023-01-01T00:38:30.446Z,58.05
2023-01-01T00:41:34.194Z,57.29
2023-01-01T00:44:39.595Z,57.21
2023-01-01T00:47:44.597Z,57.15
2023-01-01T00:50:49.247Z,57.64
2023-01-01T00:54:44.492Z,56.91
2023-01-01T00:57:50.929Z,56.86
2023-01-01T01:00:56.275Z,57.39
2023-01-01T01:04:03.427Z,57.65
2023-01-01T01:07:07.404Z,57.64
2023-01-01T01:10:13.517Z,58.86
2023-01-01T01:13:19.973Z,58.85
2023-01-01T01:16:25.962Z,57.83
2023-01-01T01:19:31.083Z,57.84
2023-01-01T01:22:36.102Z,57.77
2023-01-01T01:25:40.139Z,58.21
2023-01-01T01:28:49.280Z,59.18
2023-01-01T01:31:53.594Z,59.49
2023-01-01T01:35:05.959Z,59.50
2023-01-01T01:38:09.602Z,58.40
2023-01-01T01:41:26.905Z,58.93
2023-01-01T01:44:56.167Z,59.59
2023-01-01T01:48:01.265Z,58.86
2023-01-01T01:51:31.158Z,60.57
2023-01-01T01:54:36.699Z,59.82
2023-01-01T01:57:44.908Z,59.05
2023-01-01T02:00:48.979Z,59.42
2023-01-01T02:03:59.502Z,60.22
2023-01-01T02:07:08.284Z,60.35
2023-01-01T02:10:12.005Z,59.63
2023-01-01T02:13:17.054Z,59.36
2023-01-01T02:16:25.295Z,58.98
2023-01-01T02:19:42.685Z,59.05
2023-01-01T02:23:11.776Z,59.10
2023-01-01T02:26:40.662Z,59.64
2023-01-01T02:29:51.054Z,61.84
2023-01-01T02:33:00.380Z,62.39
2023-01-01T02:36:07.816Z,61.56
2023-01-01T02:39:12.773Z,60.53
2023-01-01T02:42:20.850Z,59.89
2023-01-01T02:45:27.515Z,59.58
2023-01-01T02:48:40.801Z,59.22
2023-01-01T02:52:02.590Z,60.07
2023-01-01T02:55:16.449Z,59.25
2023-01-01T02:58:48.994Z,58.99
2023-01-01T03:02:00.210Z,57.92
2023-01-01T03:05:12.525Z,58.40
2023-01-01T03:08:23.640Z,58.28
2023-01-01T03:11:35.789Z,58.72
2023-01-01T03:14:46.040Z,60.33
2023-01-01T03:18:04.718Z,60.36
2023-01-01T03:24:20.393Z,60.11
2023-01-01T03:27:30.349Z,59.03
2023-01-01T03:30:38.634Z,59.33
2023-01-01T03:33:47.802Z,59.07
2023-01-01T03:36:55.225Z,58.57
2023-01-01T03:40:00.988Z,59.39
2023-01-01T03:43:10.291Z,58.36
2023-01-01T03:46:15.980Z,58.46
2023-01-01T03:49:52.580Z,59.11
2023-01-01T03:53:05.644Z,59.90
2023-01-01T03:56:19.962Z,59.91
2023-01-01T03:59:29.647Z,59.32
2023-01-01T04:02:38.471Z,59.31
2023-01-01T04:10:29.648Z,57.96
2023-01-01T04:13:47.904Z,57.53
2023-01-01T04:16:52.952Z,58.77
2023-01-01T04:19:56.424Z,58.96
2023-01-01T04:23:02.339Z,59.28
2023-01-01T04:26:07.547Z,58.16
2023-01-01T04:29:11.418Z,57.60
2023-01-01T04:32:15.546Z,57.52
2023-01-01T04:35:21.166Z,57.75
2023-01-01T04:38:25.431Z,57.71
2023-01-01T04:41:33.127Z,58.27
2023-01-01T04:44:37.637Z,58.02
2023-01-01T04:47:42.983Z,57.76
2023-01-01T04:50:54.776Z,58.35
2023-01-01T04:54:03.037Z,58.30
2023-01-01T04:57:08.106Z,57.95
2023-01-01T05:00:14.068Z,57.76
2023-01-01T05:03:17.800Z,57.59
2023-01-01T05:06:24.428Z,58.98
2023-01-01T05:09:28.245Z,58.82
2023-01-01T05:12:35.005Z,57.88
2023-01-01T05:15:39.812Z,57.92
2023-01-01T05:18:44.255Z,58.77
2023-01-01T05:21:47.792Z,58.19
2023-01-01T05:24:54.615Z,58.05
2023-01-01T05:27:59.455Z,57.41
2023-01-01T05:31:07.365Z,57.58
2023-01-01T05:34:11.448Z,58.38
2023-01-01T05:37:15.773Z,58.36
2023-01-01T05:40:19.497Z,58.65
2023-01-01T05:43:28.017Z,58.78
2023-01-01T05:46:32.503Z,58.88
2023-01-01T05:49:36.851Z,58.15
2023-01-01T05:52:40.704Z,58.18
2023-01-01T05:55:46.523Z,58.46
2023-01-01T05:58:53.652Z,58.19
2023-01-01T06:01:57.872Z,58.00
2023-01-01T06:05:04.163Z,57.82
2023-01-01T06:08:09.917Z,57.67
2023-01-01T06:11:16.254Z,58.21
2023-01-01T06:14:22.338Z,57.95
2023-01-01T06:17:26.685Z,57.75
2023-01-01T06:20:33.754Z,57.36
2023-01-01T06:23:38.041Z,57.35
2023-01-01T06:27:55.666Z,57.56
2023-01-01T06:31:05.587Z,57.05
2023-01-01T06:34:10.725Z,57.33
2023-01-01T06:37:16.679Z,59.19
2023-01-01T06:40:20.157Z,58.83
2023-01-01T06:43:49.114Z,59.18
2023-01-01T06:46:54.015Z,58.97
2023-01-01T06:49:58.326Z,60.13
2023-01-01T06:54:16.734Z,60.14
2023-01-01T06:57:20.879Z,59.58
2023-01-01T07:00:24.540Z,59.61
2023-01-01T07:03:36.446Z,59.23
2023-01-01T07:06:41.685Z,59.28
2023-01-01T07:09:47.423Z,58.96
2023-01-01T07:17:39.581Z,59.59
2023-01-01T07:20:49.949Z,59.04
2023-01-01T07:24:47.009Z,58.83
2023-01-01T07:27:50.903Z,59.31
2023-01-01T07:30:54.851Z,59.04
2023-01-01T07:33:58.730Z,59.26
2023-01-01T07:37:03.528Z,59.18
2023-01-01T07:40:12.848Z,59.17
2023-01-01T07:43:17.363Z,59.35
2023-01-01T07:46:23.807Z,59.80
2023-01-01T07:49:29.378Z,60.30
2023-01-01T07:52:35.011Z,59.80
2023-01-01T07:55:38.999Z,59.86
2023-01-01T07:58:45.170Z,60.15
2023-01-01T08:01:50.582Z,59.70
2023-01-01T08:04:55.115Z,59.84
2023-01-01T08:08:01.305Z,59.95
2023-01-01T08:11:58.785Z,60.38
2023-01-01T08:15:02.951Z,61.37
2023-01-01T08:18:08.570Z,61.58
2023-01-01T08:21:12.250Z,61.62
2023-01-01T08:24:18.788Z,62.28
2023-01-01T08:27:28.608Z,62.38
2023-01-01T08:30:36.113Z,62.19
2023-01-01T08:33:39.616Z,62.37
2023-01-01T08:36:44.128Z,62.03
2023-01-01T08:39:53.776Z,62.47
2023-01-01T08:42:57.851Z,62.55
2023-01-01T08:46:01.396Z,61.78
2023-01-01T08:49:08.512Z,61.27
2023-01-01T08:52:15.305Z,61.37
2023-01-01T08:55:25.623Z,62.34
2023-01-01T08:58:30.168Z,61.41
2023-01-01T09:01:36.941Z,62.30
2023-01-01T09:04:40.911Z,61.97
2023-01-01T09:07:45.125Z,62.23
2023-01-01T09:10:51.178Z,62.77
2023-01-01T09:13:55.796Z,62.02
2023-01-01T09:16:59.759Z,62.63
2023-01-01T09:20:07.079Z,62.26
2023-01-01T09:23:31.565Z,62.41
2023-01-01T09:26:40.890Z,62.76
2023-01-01T09:29:51.915Z,63.00
2023-01-01T09:33:50.178Z,62.55
2023-01-01T09:36:53.753Z,63.18
2023-01-01T09:40:00.997Z,63.63
2023-01-01T09:43:19.700Z,63.93
2023-01-01T09:46:31.738Z,63.67
2023-01-01T09:49:42.088Z,64.46
2023-01-01T09:52:52.135Z,63.77
2023-01-01T09:56:32.151Z,63.95
2023-01-01T09:59:37.828Z,64.06
2023-01-01T10:02:54.219Z,64.62
2023-01-01T10:06:12.695Z,64.46
2023-01-01T10:09:32.172Z,64.37
2023-01-01T10:12:43.543Z,64.92
2023-01-01T10:15:56.834Z,64.93
2023-01-01T10:19:18.596Z,64.46
2023-01-01T10:22:30.535Z,64.61
2023-01-01T10:25:37.125Z,65.19
2023-01-01T10:28:50.958Z,64.36
2023-01-01T10:32:15.321Z,64.24
2023-01-01T10:35:25.329Z,65.12
2023-01-01T10:38:37.518Z,64.69
2023-01-01T10:41:43.985Z,64.83
2023-01-01T10:44:48.361Z,64.25
2023-01-01T10:48:17.962Z,63.75
2023-01-01T10:51:24.902Z,63.11
2023-01-01T10:54:38.022Z,62.30
2023-01-01T10:57:47.753Z,62.08
2023-01-01T11:01:00.141Z,62.05
2023-01-01T11:04:21.631Z,61.78
2023-01-01T11:07:30.492Z,61.92
2023-01-01T11:10:35.496Z,62.12
2023-01-01T11:14:19.323Z,61.86
2023-01-01T11:17:25.683Z,61.73
2023-01-01T11:20:35.664Z,62.04
2023-01-01T11:23:41.864Z,61.36
2023-01-01T11:26:54.265Z,61.50
2023-01-01T11:30:23.057Z,61.45
2023-01-01T11:33:33.506Z,61.36
2023-01-01T11:36:39.339Z,60.88
2023-01-01T11:39:45.469Z,60.85
2023-01-01T11:42:58.957Z,60.66
2023-01-01T11:46:08.210Z,60.48
2023-01-01T11:49:16.434Z,60.55
2023-01-01T11:52:36.475Z,60.31
2023-01-01T11:55:45.195Z,60.65
2023-01-01T11:58:54.001Z,60.27
2023-01-01T12:02:03.543Z,60.38
2023-01-01T12:05:18.413Z,60.23
2023-01-01T12:08:34.964Z,60.15
2023-01-01T12:11:44.882Z,60.44
2023-01-01T12:14:57.065Z,59.76
2023-01-01T12:18:09.919Z,60.09
2023-01-01T12:21:18.967Z,59.89
2023-01-01T12:24:24.144Z,59.96
2023-01-01T12:27:54.168Z,59.80
2023-01-01T12:31:09.817Z,59.65
2023-01-01T12:34:20.854Z,59.59
2023-01-01T12:37:46.161Z,59.82
2023-01-01T12:40:58.886Z,59.55
2023-01-01T12:44:10.343Z,59.56
2023-01-01T12:47:32.346Z,59.24
2023-01-01T12:50:55.090Z,58.97
2023-01-01T12:54:20.610Z,59.45
2023-01-01T12:57:31.669Z,59.46
2023-01-01T13:00:39.925Z,59.56
2023-01-01T13:03:50.688Z,59.45
2023-01-01T13:07:03.963Z,59.34
2023-01-01T13:10:18.312Z,59.34
2023-01-01T13:13:23.812Z,59.40
2023-01-01T13:16:41.542Z,59.62
2023-01-01T13:19:45.488Z,59.54
2023-01-01T13:22:49.926Z,59.78
2023-01-01T13:26:26.834Z,59.55
2023-01-01T13:29:48.327Z,59.73
2023-01-01T13:33:25.028Z,59.78
2023-01-01T13:36:32.381Z,59.77
2023-01-01T13:39:57.017Z,59.71
2023-01-01T13:43:19.618Z,59.68
2023-01-01T13:46:51.841Z,59.91
2023-01-01T13:50:08.759Z,60.13
2023-01-01T13:53:39.201Z,60.27
2023-01-01T13:56:49.968Z,60.14
2023-01-01T14:00:06.596Z,60.25
2023-01-01T14:03:19.386Z,60.05
2023-01-01T14:06:30.285Z,60.13
2023-01-01T14:09:35.686Z,59.81
2023-01-01T14:12:43.274Z,60.45
2023-01-01T14:15:55.012Z,60.21
2023-01-01T14:19:04.501Z,60.32
2023-01-01T14:22:09.155Z,60.87
2023-01-01T14:25:21.703Z,60.71
2023-01-01T14:28:29.084Z,60.79
2023-01-01T14:31:40.093Z,60.88
2023-01-01T14:34:52.877Z,60.77
2023-01-01T14:38:17.740Z,61.00
2023-01-01T14:41:28.979Z,61.26
2023-01-01T14:44:39.317Z,61.30
2023-01-01T14:47:53.983Z,61.55
2023-01-01T14:51:00.042Z,61.64
2023-01-01T14:54:05.823Z,61.87
2023-01-01T14:57:17.241Z,61.78
2023-01-01T15:00:24.488Z,61.97
2023-01-01T15:03:28.344Z,61.99
2023-01-01T15:06:34.086Z,61.80
2023-01-01T15:09:39.201Z,61.77
2023-01-01T15:12:43.950Z,61.86
2023-01-01T15:15:50.689Z,61.90
2023-01-01T15:18:57.275Z,61.70
2023-01-01T15:22:03.171Z,61.51
2023-01-01T15:25:13.287Z,62.11
2023-01-01T15:28:21.012Z,61.90
2023-01-01T15:31:36.262Z,61.62
2023-01-01T15:34:45.507Z,61.82
2023-01-01T15:37:56.655Z,61.51
2023-01-01T15:41:02.676Z,61.58
2023-01-01T15:44:27.599Z,61.03
2023-01-01T15:47:33.579Z,60.92
2023-01-01T15:50:44.323Z,61.66
2023-01-01T15:53:54.464Z,61.40
2023-01-01T15:57:00.511Z,60.92
2023-01-01T16:00:05.283Z,60.69
2023-01-01T16:03:23.302Z,61.21
2023-01-01T16:06:27.693Z,62.00
2023-01-01T16:09:36.086Z,62.39
2023-01-01T16:12:40.018Z,62.28
2023-01-01T16:15:50.828Z,61.86
2023-01-01T16:18:56.012Z,62.33
2023-01-01T16:21:59.991Z,61.49
2023-01-01T16:25:13.314Z,61.43
2023-01-01T16:28:19.643Z,61.04
2023-01-01T16:31:28.685Z,61.56
2023-01-01T16:34:32.301Z,61.55
2023-01-01T16:37:37.310Z,61.46
2023-01-01T16:40:42.542Z,61.79
2023-01-01T16:43:49.413Z,61.38
2023-01-01T16:46:54.863Z,61.54
2023-01-01T16:50:03.732Z,61.38
2023-01-01T16:53:07.324Z,61.78
2023-01-01T16:56:13.875Z,61.56
2023-01-01T16:59:17.296Z,61.41
2023-01-01T17:02:25.570Z,61.21
2023-01-01T17:05:29.195Z,61.50
2023-01-01T17:08:33.816Z,60.86
2023-01-01T17:11:39.536Z,61.23
2023-01-01T17:14:43.415Z,60.91
2023-01-01T17:17:47.049Z,59.72
2023-01-01T17:20:51.091Z,60.26
2023-01-01T17:23:54.960Z,59.58
2023-01-01T17:27:01.653Z,60.24
2023-01-01T17:30:06.347Z,61.61
2023-01-01T17:33:10.608Z,62.22
2023-01-01T17:36:14.663Z,61.37
2023-01-01T17:39:18.400Z,60.70
2023-01-01T17:42:23.480Z,59.66
2023-01-01T17:45:27.381Z,60.27
2023-01-01T17:48:51.167Z,60.39
2023-01-01T17:51:55.256Z,60.97
2023-01-01T17:55:00.107Z,60.98
2023-01-01T17:58:11.759Z,61.41
2023-01-01T18:01:29.733Z,61.43
2023-01-01T18:04:39.395Z,61.21
2023-01-01T18:07:46.729Z,61.43
2023-01-01T18:11:04.207Z,60.94
2023-01-01T18:14:12.496Z,60.46
2023-01-01T18:17:21.954Z,60.03
2023-01-01T18:20:26.273Z,59.67
2023-01-01T18:23:33.475Z,58.88
2023-01-01T18:26:38.418Z,59.46
2023-01-01T18:29:59.445Z,59.22
2023-01-01T18:33:09.492Z,59.66
2023-01-01T18:36:16.652Z,59.05
2023-01-01T18:39:23.337Z,59.38
2023-01-01T18:42:44.234Z,61.08
2023-01-01T18:45:49.173Z,59.90
2023-01-01T18:48:58.815Z,59.89
2023-01-01T18:52:14.515Z,59.79
2023-01-01T18:55:19.274Z,59.60
2023-01-01T18:58:30.752Z,60.24
2023-01-01T19:01:36.308Z,60.74
2023-01-01T19:04:40.111Z,60.07
2023-01-01T19:07:52.594Z,59.48
2023-01-01T19:10:59.557Z,59.11
2023-01-01T19:14:14.706Z,59.37
2023-01-01T19:17:24.244Z,60.38
2023-01-01T19:20:39.605Z,60.47
2023-01-01T19:23:51.931Z,59.29
2023-01-01T19:27:00.156Z,60.53
2023-01-01T19:30:24.981Z,59.32
2023-01-01T19:33:33.135Z,60.33
2023-01-01T19:36:36.851Z,61.01
2023-01-01T19:39:41.107Z,60.81
2023-01-01T19:42:46.141Z,59.69
2023-01-01T19:45:52.212Z,59.32
2023-01-01T19:48:58.920Z,58.99
2023-01-01T19:52:08.495Z,59.40
2023-01-01T19:55:12.208Z,59.09
2023-01-01T19:58:16.419Z,58.29
2023-01-01T20:01:20.013Z,58.17
2023-01-01T20:04:25.514Z,57.96
2023-01-01T20:07:29.105Z,58.19
2023-01-01T20:10:33.656Z,59.24
2023-01-01T20:13:37.717Z,59.32
2023-01-01T20:16:48.321Z,60.21
2023-01-01T20:19:54.870Z,59.06
2023-01-01T20:23:01.160Z,59.88
2023-01-01T20:26:06.104Z,60.42
2023-01-01T20:29:22.592Z,60.72
2023-01-01T20:32:28.820Z,59.46
2023-01-01T20:35:57.645Z,58.69
2023-01-01T20:39:06.892Z,58.08
2023-01-01T20:42:11.230Z,58.60
2023-01-01T20:45:18.581Z,58.70
2023-01-01T20:48:22.661Z,58.77
2023-01-01T20:51:27.943Z,59.59
2023-01-01T20:54:32.182Z,58.71
2023-01-01T20:57:38.249Z,58.89
2023-01-01T21:00:42.230Z,59.67
2023-01-01T21:03:50.995Z,59.97
2023-01-01T21:06:56.521Z,60.25
2023-01-01T21:10:00.033Z,61.13
2023-01-01T21:13:04.609Z,61.34
2023-01-01T21:16:17.114Z,60.23
2023-01-01T21:19:26.252Z,59.51
2023-01-01T21:22:33.550Z,59.55
2023-01-01T21:25:54.304Z,59.75
2023-01-01T21:29:04.399Z,59.98
2023-01-01T21:32:20.843Z,59.52
2023-01-01T21:35:31.242Z,58.82
2023-01-01T21:38:46.364Z,58.48
2023-01-01T21:41:55.720Z,59.25
2023-01-01T21:44:59.613Z,60.35
2023-01-01T21:48:16.807Z,59.62
2023-01-01T21:51:26.303Z,58.52
2023-01-01T21:54:34.336Z,57.76
2023-01-01T21:57:39.420Z,57.88
2023-01-01T22:00:44.436Z,57.95
2023-01-01T22:04:23.329Z,59.01
2023-01-01T22:07:57.012Z,58.98
2023-01-01T22:10:58.727Z,59.76
2023-01-01T22:14:03.111Z,59.16
2023-01-01T22:17:16.045Z,58.83
2023-01-01T22:20:24.698Z,58.95
2023-01-01T22:23:40.973Z,59.10
2023-01-01T22:26:45.920Z,59.02
2023-01-01T22:29:50.027Z,59.39
2023-01-01T22:32:55.704Z,59.73
2023-01-01T22:35:59.559Z,60.16
2023-01-01T22:39:13.606Z,60.04
2023-01-01T22:42:22.017Z,58.61
2023-01-01T22:45:27.010Z,59.17
2023-01-01T22:49:47.503Z,59.95
2023-01-01T22:52:51.854Z,59.56
2023-01-01T22:55:55.432Z,59.61
2023-01-01T22:59:02.010Z,60.48
2023-01-01T23:02:06.757Z,61.08
2023-01-01T23:05:11.343Z,61.10
2023-01-01T23:08:20.341Z,61.49
2023-01-01T23:11:24.613Z,60.03
2023-01-01T23:14:47.004Z,59.95
2023-01-01T23:17:50.831Z,59.26
2023-01-01T23:20:55.097Z,58.88
2023-01-01T23:24:01.815Z,59.79
2023-01-01T23:27:05.481Z,59.54
2023-01-01T23:30:16.868Z,59.10
2023-01-01T23:33:20.856Z,59.27
2023-01-01T23:36:25.986Z,58.73
2023-01-01T23:39:29.868Z,59.60
2023-01-01T23:42:34.068Z,59.60
2023-01-01T23:45:39.984Z,58.93
2023-01-01T23:48:48.278Z,58.40
2023-01-01T23:51:51.905Z,57.86
2023-01-01T23:54:55.932Z,58.68
2023-01-01T23:57:59.420Z,59.38
